Etusivu
METAR-TAF:

METAR-TAF

Lentoasemat :

Bromman lentoasema

Tukholma, Ruotsi

Leveyspiiri: 59-21N, Pituuspiiri: 017-57E, korkeus merenpinnasta: 14 m

Tämänhetkinen sää

Tämä raportti tehtiin 21 minuuttia sitten, kello 13.20 UTC
Tuuli 12 kn lännestä
Lämpötila 24°C
Kosteus 24%
Ilmanpaine 1025 hPa
Näkyvyys 10 km tai enemmän
ei pilviä alle 1500 m:ssä eikä cumulonimbus-pilviä

METAR: ESSB 201320Z 28012KT CAVOK 24/02 Q1025

Aika: 15:41 (13:41 UTC)

Sääennuste

Tämä raportti tehtiin 2 tuntia ja 11 minuuttia sitten, kello 11.30 UTC
Ennuste voimassa 20. päivästä klo 12 UTC - 20. päivään klo 20 UTC
Tuuli 10 kn lännestä
Näkyvyys 10 km tai enemmän
ei pilviä alle 1500 m:ssä eikä cumulonimbus-pilviä
Todennäköisyys 40%
20. päivästä klo 18 UTC - 20. päivään klo 20 UTC
Tuuli 7 kn etelästä

TAF: ESSB 201130Z 2012/2020 27010KT CAVOK PROB40 2018/2020 19007KT

Säähavainnot ja -ennusteet yli 4000 lentoasemalta (METAR- ja TAF-raportit).

Käytössä olevat sääasemat on merkitty karttaan keltaisilla ja punaisilla pisteillä.

Aseta hiiri pisteen päälle nähdäksesi sääaseman nimen.

Klikkaa sitten nähdäksesi säähavainnot ja -ennusteet.

Kartan vaihtaminen: klikkaa mustalla rastilla varustettuja vihreitä pisteitä, niin voit zoomata sisään; viivalla varustettua vihreää pistettä, niin voit zoomata ulos tai vihreitä nuolia, niin pääset viereisille kartoille.


METAR-TAF: